sensor_id;sensor_type;location;lat;lon;timestamp;P1;durP1;ratioP1;P2;durP2;ratioP2
68216;SDS011;55037;52.354;4.992;2022-10-30T00:01:54;14.90;;;7.03;;
68216;SDS011;55037;52.354;4.992;2022-10-30T00:04:22;17.70;;;7.25;;
68216;SDS011;55037;52.354;4.992;2022-10-30T00:06:49;16.13;;;7.05;;
68216;SDS011;55037;52.354;4.992;2022-10-30T00:09:16;21.90;;;7.50;;
68216;SDS011;55037;52.354;4.992;2022-10-30T00:11:43;17.15;;;7.60;;
68216;SDS011;55037;52.354;4.992;2022-10-30T00:14:10;17.83;;;7.20;;
68216;SDS011;55037;52.354;4.992;2022-10-30T00:16:39;17.75;;;7.70;;
68216;SDS011;55037;52.354;4.992;2022-10-30T00:19:06;18.48;;;7.93;;
68216;SDS011;55037;52.354;4.992;2022-10-30T00:21:33;19.42;;;7.72;;
68216;SDS011;55037;52.354;4.992;2022-10-30T00:24:00;21.02;;;8.13;;
68216;SDS011;55037;52.354;4.992;2022-10-30T00:26:28;20.60;;;8.00;;
68216;SDS011;55037;52.354;4.992;2022-10-30T00:28:55;15.30;;;7.53;;
68216;SDS011;55037;52.354;4.992;2022-10-30T00:31:23;16.33;;;7.90;;
68216;SDS011;55037;52.354;4.992;2022-10-30T00:33:50;19.55;;;7.68;;
68216;SDS011;55037;52.354;4.992;2022-10-30T00:36:19;20.33;;;8.25;;
68216;SDS011;55037;52.354;4.992;2022-10-30T00:38:47;18.40;;;7.90;;
68216;SDS011;55037;52.354;4.992;2022-10-30T00:41:19;19.77;;;8.10;;
68216;SDS011;55037;52.354;4.992;2022-10-30T00:43:48;19.00;;;7.88;;
68216;SDS011;55037;52.354;4.992;2022-10-30T00:49:09;19.73;;;8.57;;
68216;SDS011;55037;52.354;4.992;2022-10-30T00:51:46;17.25;;;8.40;;
68216;SDS011;55037;52.354;4.992;2022-10-30T00:54:17;18.65;;;7.95;;
68216;SDS011;55037;52.354;4.992;2022-10-30T00:56:45;17.63;;;8.45;;
68216;SDS011;55037;52.354;4.992;2022-10-30T00:59:16;23.38;;;8.15;;
68216;SDS011;55037;52.354;4.992;2022-10-30T01:01:48;19.70;;;7.77;;
68216;SDS011;55037;52.354;4.992;2022-10-30T01:04:16;21.13;;;8.63;;
68216;SDS011;55037;52.354;4.992;2022-10-30T01:06:44;17.65;;;8.00;;
68216;SDS011;55037;52.354;4.992;2022-10-30T01:09:18;19.73;;;8.35;;
68216;SDS011;55037;52.354;4.992;2022-10-30T01:11:46;16.60;;;8.07;;
68216;SDS011;55037;52.354;4.992;2022-10-30T01:14:14;24.13;;;8.57;;
68216;SDS011;55037;52.354;4.992;2022-10-30T01:22:54;19.20;;;7.93;;
68216;SDS011;55037;52.354;4.992;2022-10-30T01:34:45;19.50;;;8.30;;
68216;SDS011;55037;52.354;4.992;2022-10-30T01:39:54;21.23;;;8.48;;
68216;SDS011;55037;52.354;4.992;2022-10-30T01:50:56;17.92;;;8.65;;
68216;SDS011;55037;52.354;4.992;2022-10-30T01:53:58;18.70;;;8.52;;
68216;SDS011;55037;52.354;4.992;2022-10-30T01:56:44;19.42;;;8.48;;
68216;SDS011;55037;52.354;4.992;2022-10-30T01:59:23;20.38;;;8.98;;
68216;SDS011;55037;52.354;4.992;2022-10-30T02:02:24;21.73;;;8.50;;
68216;SDS011;55037;52.354;4.992;2022-10-30T02:04:53;21.65;;;8.75;;
68216;SDS011;55037;52.354;4.992;2022-10-30T02:07:21;20.95;;;8.88;;
68216;SDS011;55037;52.354;4.992;2022-10-30T02:09:50;19.45;;;8.95;;
68216;SDS011;55037;52.354;4.992;2022-10-30T02:12:19;19.65;;;9.10;;
68216;SDS011;55037;52.354;4.992;2022-10-30T02:14:49;19.55;;;8.95;;
68216;SDS011;55037;52.354;4.992;2022-10-30T02:17:20;19.48;;;8.52;;
68216;SDS011;55037;52.354;4.992;2022-10-30T02:19:48;19.77;;;8.90;;
68216;SDS011;55037;52.354;4.992;2022-10-30T02:22:16;18.67;;;8.63;;
68216;SDS011;55037;52.354;4.992;2022-10-30T02:24:44;16.52;;;8.57;;
68216;SDS011;55037;52.354;4.992;2022-10-30T02:27:12;18.00;;;8.52;;
68216;SDS011;55037;52.354;4.992;2022-10-30T02:29:39;18.27;;;8.13;;
68216;SDS011;55037;52.354;4.992;2022-10-30T02:32:06;19.55;;;8.40;;
68216;SDS011;55037;52.354;4.992;2022-10-30T02:34:34;18.05;;;8.27;;
68216;SDS011;55037;52.354;4.992;2022-10-30T02:37:02;21.85;;;8.93;;
68216;SDS011;55037;52.354;4.992;2022-10-30T02:39:29;19.77;;;8.50;;
68216;SDS011;55037;52.354;4.992;2022-10-30T02:41:56;20.27;;;8.80;;
68216;SDS011;55037;52.354;4.992;2022-10-30T02:44:23;24.40;;;9.03;;
68216;SDS011;55037;52.354;4.992;2022-10-30T02:46:50;27.10;;;8.90;;
68216;SDS011;55037;52.354;4.992;2022-10-30T02:49:18;19.98;;;8.77;;
68216;SDS011;55037;52.354;4.992;2022-10-30T02:51:45;18.40;;;8.38;;
68216;SDS011;55037;52.354;4.992;2022-10-30T02:54:12;20.27;;;8.60;;
68216;SDS011;55037;52.354;4.992;2022-10-30T02:56:39;22.38;;;8.90;;
68216;SDS011;55037;52.354;4.992;2022-10-30T02:59:07;19.90;;;8.60;;
68216;SDS011;55037;52.354;4.992;2022-10-30T03:01:34;19.35;;;8.70;;
68216;SDS011;55037;52.354;4.992;2022-10-30T03:04:01;21.45;;;8.65;;
68216;SDS011;55037;52.354;4.992;2022-10-30T03:06:29;22.77;;;9.02;;
68216;SDS011;55037;52.354;4.992;2022-10-30T03:08:57;17.40;;;8.82;;
68216;SDS011;55037;52.354;4.992;2022-10-30T03:11:24;21.00;;;8.60;;
68216;SDS011;55037;52.354;4.992;2022-10-30T03:13:53;19.03;;;8.60;;
68216;SDS011;55037;52.354;4.992;2022-10-30T03:16:21;21.88;;;8.52;;
68216;SDS011;55037;52.354;4.992;2022-10-30T03:18:50;21.95;;;8.98;;
68216;SDS011;55037;52.354;4.992;2022-10-30T03:21:19;20.80;;;8.75;;
68216;SDS011;55037;52.354;4.992;2022-10-30T03:23:48;22.33;;;9.35;;
68216;SDS011;55037;52.354;4.992;2022-10-30T03:26:19;24.08;;;9.23;;
68216;SDS011;55037;52.354;4.992;2022-10-30T03:28:59;23.57;;;9.13;;
68216;SDS011;55037;52.354;4.992;2022-10-30T03:31:26;24.80;;;9.30;;
68216;SDS011;55037;52.354;4.992;2022-10-30T03:34:10;19.10;;;9.48;;
68216;SDS011;55037;52.354;4.992;2022-10-30T03:36:40;23.33;;;9.63;;
68216;SDS011;55037;52.354;4.992;2022-10-30T03:39:07;18.20;;;9.18;;
68216;SDS011;55037;52.354;4.992;2022-10-30T03:41:35;20.00;;;9.10;;
68216;SDS011;55037;52.354;4.992;2022-10-30T03:44:03;22.25;;;9.40;;
68216;SDS011;55037;52.354;4.992;2022-10-30T03:46:30;21.02;;;9.38;;
68216;SDS011;55037;52.354;4.992;2022-10-30T03:49:11;18.20;;;9.18;;
68216;SDS011;55037;52.354;4.992;2022-10-30T03:51:38;22.30;;;9.25;;
68216;SDS011;55037;52.354;4.992;2022-10-30T03:54:05;22.88;;;9.60;;
68216;SDS011;55037;52.354;4.992;2022-10-30T03:56:34;21.50;;;10.00;;
68216;SDS011;55037;52.354;4.992;2022-10-30T03:59:02;21.25;;;10.20;;
68216;SDS011;55037;52.354;4.992;2022-10-30T04:01:30;26.70;;;10.13;;
68216;SDS011;55037;52.354;4.992;2022-10-30T04:03:58;21.50;;;10.18;;
68216;SDS011;55037;52.354;4.992;2022-10-30T04:06:25;24.05;;;9.98;;
68216;SDS011;55037;52.354;4.992;2022-10-30T04:08:54;25.67;;;9.75;;
68216;SDS011;55037;52.354;4.992;2022-10-30T04:11:23;22.70;;;9.63;;
68216;SDS011;55037;52.354;4.992;2022-10-30T04:13:50;23.15;;;10.15;;
68216;SDS011;55037;52.354;4.992;2022-10-30T04:16:17;25.23;;;10.57;;
68216;SDS011;55037;52.354;4.992;2022-10-30T04:18:44;24.33;;;11.70;;
68216;SDS011;55037;52.354;4.992;2022-10-30T04:21:11;23.08;;;11.20;;
68216;SDS011;55037;52.354;4.992;2022-10-30T04:23:39;24.27;;;11.00;;
68216;SDS011;55037;52.354;4.992;2022-10-30T04:26:07;24.73;;;11.43;;
68216;SDS011;55037;52.354;4.992;2022-10-30T04:28:37;27.20;;;11.30;;
68216;SDS011;55037;52.354;4.992;2022-10-30T04:31:04;23.52;;;11.43;;
68216;SDS011;55037;52.354;4.992;2022-10-30T04:33:32;22.52;;;11.77;;
68216;SDS011;55037;52.354;4.992;2022-10-30T04:36:00;22.88;;;11.38;;
68216;SDS011;55037;52.354;4.992;2022-10-30T04:38:30;22.10;;;11.40;;
68216;SDS011;55037;52.354;4.992;2022-10-30T04:40:57;25.33;;;11.80;;
68216;SDS011;55037;52.354;4.992;2022-10-30T04:43:39;23.55;;;11.80;;
68216;SDS011;55037;52.354;4.992;2022-10-30T04:46:07;24.20;;;11.60;;
68216;SDS011;55037;52.354;4.992;2022-10-30T04:48:34;23.50;;;11.50;;
68216;SDS011;55037;52.354;4.992;2022-10-30T04:51:03;23.63;;;11.95;;
68216;SDS011;55037;52.354;4.992;2022-10-30T04:53:31;25.07;;;11.80;;
68216;SDS011;55037;52.354;4.992;2022-10-30T04:56:04;23.48;;;11.38;;
68216;SDS011;55037;52.354;4.992;2022-10-30T04:58:32;23.40;;;11.98;;
68216;SDS011;55037;52.354;4.992;2022-10-30T05:01:03;22.80;;;11.30;;
68216;SDS011;55037;52.354;4.992;2022-10-30T05:03:32;21.95;;;11.10;;
68216;SDS011;55037;52.354;4.992;2022-10-30T05:06:04;23.38;;;11.55;;
68216;SDS011;55037;52.354;4.992;2022-10-30T05:08:38;21.98;;;10.90;;
68216;SDS011;55037;52.354;4.992;2022-10-30T05:11:16;22.27;;;10.55;;
68216;SDS011;55037;52.354;4.992;2022-10-30T05:13:44;19.83;;;10.23;;
68216;SDS011;55037;52.354;4.992;2022-10-30T05:16:11;20.13;;;10.27;;
68216;SDS011;55037;52.354;4.992;2022-10-30T05:18:38;24.20;;;11.37;;
68216;SDS011;55037;52.354;4.992;2022-10-30T05:21:05;22.92;;;11.25;;
68216;SDS011;55037;52.354;4.992;2022-10-30T05:23:32;21.10;;;10.82;;
68216;SDS011;55037;52.354;4.992;2022-10-30T05:26:00;24.33;;;11.35;;
68216;SDS011;55037;52.354;4.992;2022-10-30T05:28:28;22.27;;;11.57;;
68216;SDS011;55037;52.354;4.992;2022-10-30T05:30:57;24.17;;;12.10;;
68216;SDS011;55037;52.354;4.992;2022-10-30T05:33:47;25.55;;;12.50;;
68216;SDS011;55037;52.354;4.992;2022-10-30T05:36:14;26.42;;;12.48;;
68216;SDS011;55037;52.354;4.992;2022-10-30T05:38:42;26.70;;;12.23;;
68216;SDS011;55037;52.354;4.992;2022-10-30T05:41:17;24.95;;;11.88;;
68216;SDS011;55037;52.354;4.992;2022-10-30T05:43:44;25.83;;;12.00;;
68216;SDS011;55037;52.354;4.992;2022-10-30T05:46:11;26.90;;;12.32;;
68216;SDS011;55037;52.354;4.992;2022-10-30T05:48:38;27.45;;;12.75;;
68216;SDS011;55037;52.354;4.992;2022-10-30T05:51:06;24.50;;;12.00;;
68216;SDS011;55037;52.354;4.992;2022-10-30T05:53:35;23.45;;;12.20;;
68216;SDS011;55037;52.354;4.992;2022-10-30T05:56:06;26.90;;;12.23;;
68216;SDS011;55037;52.354;4.992;2022-10-30T05:58:34;20.77;;;10.93;;
68216;SDS011;55037;52.354;4.992;2022-10-30T06:01:04;26.65;;;12.10;;
68216;SDS011;55037;52.354;4.992;2022-10-30T06:03:39;27.93;;;11.80;;
68216;SDS011;55037;52.354;4.992;2022-10-30T06:06:06;22.07;;;11.77;;
68216;SDS011;55037;52.354;4.992;2022-10-30T06:08:34;24.80;;;12.13;;
68216;SDS011;55037;52.354;4.992;2022-10-30T06:11:14;24.45;;;11.93;;
68216;SDS011;55037;52.354;4.992;2022-10-30T06:13:43;25.33;;;12.17;;
68216;SDS011;55037;52.354;4.992;2022-10-30T06:16:11;28.05;;;12.50;;
68216;SDS011;55037;52.354;4.992;2022-10-30T06:18:56;27.80;;;12.10;;
68216;SDS011;55037;52.354;4.992;2022-10-30T06:21:24;22.52;;;11.70;;
68216;SDS011;55037;52.354;4.992;2022-10-30T06:24:12;23.95;;;11.85;;
68216;SDS011;55037;52.354;4.992;2022-10-30T06:26:44;23.25;;;11.60;;
68216;SDS011;55037;52.354;4.992;2022-10-30T06:29:13;24.80;;;11.57;;
68216;SDS011;55037;52.354;4.992;2022-10-30T06:31:40;24.15;;;11.43;;
68216;SDS011;55037;52.354;4.992;2022-10-30T06:34:07;25.15;;;11.13;;
68216;SDS011;55037;52.354;4.992;2022-10-30T06:36:37;23.83;;;11.73;;
68216;SDS011;55037;52.354;4.992;2022-10-30T06:39:05;23.80;;;12.23;;
68216;SDS011;55037;52.354;4.992;2022-10-30T06:41:46;26.20;;;12.18;;
68216;SDS011;55037;52.354;4.992;2022-10-30T06:44:21;27.10;;;11.73;;
68216;SDS011;55037;52.354;4.992;2022-10-30T06:46:51;24.23;;;11.30;;
68216;SDS011;55037;52.354;4.992;2022-10-30T06:49:18;23.63;;;11.93;;
68216;SDS011;55037;52.354;4.992;2022-10-30T06:51:47;22.60;;;11.50;;
68216;SDS011;55037;52.354;4.992;2022-10-30T06:54:16;23.80;;;11.93;;
68216;SDS011;55037;52.354;4.992;2022-10-30T06:56:58;29.05;;;12.30;;
68216;SDS011;55037;52.354;4.992;2022-10-30T06:59:44;24.73;;;11.93;;
68216;SDS011;55037;52.354;4.992;2022-10-30T07:02:34;26.00;;;11.83;;
68216;SDS011;55037;52.354;4.992;2022-10-30T07:05:06;24.55;;;11.52;;
68216;SDS011;55037;52.354;4.992;2022-10-30T07:07:33;20.92;;;11.77;;
68216;SDS011;55037;52.354;4.992;2022-10-30T07:10:00;22.02;;;11.65;;
68216;SDS011;55037;52.354;4.992;2022-10-30T07:12:56;20.35;;;10.55;;
68216;SDS011;55037;52.354;4.992;2022-10-30T07:15:41;22.98;;;11.50;;
68216;SDS011;55037;52.354;4.992;2022-10-30T07:18:22;21.25;;;10.90;;
68216;SDS011;55037;52.354;4.992;2022-10-30T07:20:54;25.93;;;11.20;;
68216;SDS011;55037;52.354;4.992;2022-10-30T07:23:23;23.38;;;11.20;;
68216;SDS011;55037;52.354;4.992;2022-10-30T07:25:53;22.02;;;11.68;;
68216;SDS011;55037;52.354;4.992;2022-10-30T07:28:34;21.88;;;10.98;;
68216;SDS011;55037;52.354;4.992;2022-10-30T07:31:19;26.50;;;12.25;;
68216;SDS011;55037;52.354;4.992;2022-10-30T07:34:24;21.00;;;10.95;;
68216;SDS011;55037;52.354;4.992;2022-10-30T07:37:10;22.40;;;11.50;;
68216;SDS011;55037;52.354;4.992;2022-10-30T07:39:46;24.75;;;11.32;;
68216;SDS011;55037;52.354;4.992;2022-10-30T07:42:19;22.65;;;11.13;;
68216;SDS011;55037;52.354;4.992;2022-10-30T07:45:09;20.27;;;11.18;;
68216;SDS011;55037;52.354;4.992;2022-10-30T07:48:15;24.97;;;10.80;;
68216;SDS011;55037;52.354;4.992;2022-10-30T07:50:46;24.55;;;10.18;;
68216;SDS011;55037;52.354;4.992;2022-10-30T07:53:13;19.53;;;9.80;;
68216;SDS011;55037;52.354;4.992;2022-10-30T07:55:41;20.53;;;9.23;;
68216;SDS011;55037;52.354;4.992;2022-10-30T07:58:28;21.95;;;9.80;;
68216;SDS011;55037;52.354;4.992;2022-10-30T08:01:17;20.77;;;8.88;;
68216;SDS011;55037;52.354;4.992;2022-10-30T08:03:44;21.90;;;9.57;;
68216;SDS011;55037;52.354;4.992;2022-10-30T08:06:20;22.88;;;9.77;;
68216;SDS011;55037;52.354;4.992;2022-10-30T08:08:52;19.83;;;9.67;;
68216;SDS011;55037;52.354;4.992;2022-10-30T08:11:25;25.00;;;10.40;;
68216;SDS011;55037;52.354;4.992;2022-10-30T08:13:53;20.48;;;9.43;;
68216;SDS011;55037;52.354;4.992;2022-10-30T08:16:21;22.15;;;9.07;;
68216;SDS011;55037;52.354;4.992;2022-10-30T08:18:50;20.57;;;8.97;;
68216;SDS011;55037;52.354;4.992;2022-10-30T08:21:20;17.58;;;8.85;;
68216;SDS011;55037;52.354;4.992;2022-10-30T08:23:56;16.40;;;8.60;;
68216;SDS011;55037;52.354;4.992;2022-10-30T08:26:26;19.52;;;8.77;;
68216;SDS011;55037;52.354;4.992;2022-10-30T08:28:54;18.65;;;8.45;;
68216;SDS011;55037;52.354;4.992;2022-10-30T08:31:23;19.47;;;8.37;;
68216;SDS011;55037;52.354;4.992;2022-10-30T08:34:03;21.83;;;9.15;;
68216;SDS011;55037;52.354;4.992;2022-10-30T08:36:36;20.08;;;8.65;;
68216;SDS011;55037;52.354;4.992;2022-10-30T08:39:04;20.92;;;8.57;;
68216;SDS011;55037;52.354;4.992;2022-10-30T08:41:49;18.50;;;8.40;;
68216;SDS011;55037;52.354;4.992;2022-10-30T08:44:18;17.52;;;8.25;;
68216;SDS011;55037;52.354;4.992;2022-10-30T08:47:18;19.27;;;8.70;;
68216;SDS011;55037;52.354;4.992;2022-10-30T08:49:45;17.90;;;8.67;;
68216;SDS011;55037;52.354;4.992;2022-10-30T08:52:16;19.03;;;8.30;;
68216;SDS011;55037;52.354;4.992;2022-10-30T08:54:47;17.30;;;8.07;;
68216;SDS011;55037;52.354;4.992;2022-10-30T08:57:14;17.98;;;8.48;;
68216;SDS011;55037;52.354;4.992;2022-10-30T08:59:42;19.50;;;8.88;;
68216;SDS011;55037;52.354;4.992;2022-10-30T09:02:21;18.33;;;8.48;;
68216;SDS011;55037;52.354;4.992;2022-10-30T09:05:18;17.25;;;8.23;;
68216;SDS011;55037;52.354;4.992;2022-10-30T09:08:13;18.30;;;8.60;;
68216;SDS011;55037;52.354;4.992;2022-10-30T09:11:03;17.95;;;8.82;;
68216;SDS011;55037;52.354;4.992;2022-10-30T09:13:31;16.23;;;8.80;;
68216;SDS011;55037;52.354;4.992;2022-10-30T09:16:00;18.48;;;8.57;;
68216;SDS011;55037;52.354;4.992;2022-10-30T09:18:31;19.47;;;8.60;;
68216;SDS011;55037;52.354;4.992;2022-10-30T09:20:58;16.15;;;8.10;;
68216;SDS011;55037;52.354;4.992;2022-10-30T09:23:33;19.35;;;8.55;;
68216;SDS011;55037;52.354;4.992;2022-10-30T09:26:23;16.13;;;7.85;;
68216;SDS011;55037;52.354;4.992;2022-10-30T09:28:56;19.20;;;8.50;;
68216;SDS011;55037;52.354;4.992;2022-10-30T09:31:42;17.88;;;8.07;;
68216;SDS011;55037;52.354;4.992;2022-10-30T09:34:13;19.98;;;8.52;;
68216;SDS011;55037;52.354;4.992;2022-10-30T09:36:46;19.67;;;8.70;;
68216;SDS011;55037;52.354;4.992;2022-10-30T09:39:14;19.60;;;8.55;;
68216;SDS011;55037;52.354;4.992;2022-10-30T09:44:40;17.65;;;8.05;;
68216;SDS011;55037;52.354;4.992;2022-10-30T10:01:51;18.83;;;8.20;;
68216;SDS011;55037;52.354;4.992;2022-10-30T10:04:27;18.40;;;8.32;;
68216;SDS011;55037;52.354;4.992;2022-10-30T10:15:54;19.10;;;8.80;;
68216;SDS011;55037;52.354;4.992;2022-10-30T10:18:27;18.95;;;8.90;;
68216;SDS011;55037;52.354;4.992;2022-10-30T10:21:15;18.63;;;8.52;;
68216;SDS011;55037;52.354;4.992;2022-10-30T10:23:49;21.88;;;8.50;;
68216;SDS011;55037;52.354;4.992;2022-10-30T10:29:31;18.95;;;8.45;;
68216;SDS011;55037;52.354;4.992;2022-10-30T10:35:02;18.88;;;8.90;;
68216;SDS011;55037;52.354;4.992;2022-10-30T10:38:03;18.00;;;9.05;;
68216;SDS011;55037;52.354;4.992;2022-10-30T10:40:39;17.23;;;9.05;;
68216;SDS011;55037;52.354;4.992;2022-10-30T10:43:22;16.80;;;9.45;;
68216;SDS011;55037;52.354;4.992;2022-10-30T10:51:33;17.85;;;8.52;;
68216;SDS011;55037;52.354;4.992;2022-10-30T10:54:15;16.85;;;8.15;;
68216;SDS011;55037;52.354;4.992;2022-10-30T10:56:49;16.25;;;8.38;;
68216;SDS011;55037;52.354;4.992;2022-10-30T10:59:22;16.02;;;7.97;;
68216;SDS011;55037;52.354;4.992;2022-10-30T11:05:24;17.90;;;8.40;;
68216;SDS011;55037;52.354;4.992;2022-10-30T11:07:51;15.98;;;8.50;;
68216;SDS011;55037;52.354;4.992;2022-10-30T11:10:25;17.98;;;8.20;;
68216;SDS011;55037;52.354;4.992;2022-10-30T11:12:52;18.95;;;7.60;;
68216;SDS011;55037;52.354;4.992;2022-10-30T11:18:06;14.70;;;7.60;;
68216;SDS011;55037;52.354;4.992;2022-10-30T11:23:31;18.03;;;7.70;;
68216;SDS011;55037;52.354;4.992;2022-10-30T11:28:53;20.05;;;8.65;;
68216;SDS011;55037;52.354;4.992;2022-10-30T11:31:21;18.37;;;8.50;;
68216;SDS011;55037;52.354;4.992;2022-10-30T11:33:49;20.02;;;8.85;;
68216;SDS011;55037;52.354;4.992;2022-10-30T11:36:21;19.10;;;8.80;;
68216;SDS011;55037;52.354;4.992;2022-10-30T11:38:50;17.75;;;7.35;;
68216;SDS011;55037;52.354;4.992;2022-10-30T11:41:19;16.38;;;7.15;;
68216;SDS011;55037;52.354;4.992;2022-10-30T11:43:46;17.92;;;7.85;;
68216;SDS011;55037;52.354;4.992;2022-10-30T11:46:19;19.67;;;7.88;;
68216;SDS011;55037;52.354;4.992;2022-10-30T11:48:48;14.73;;;6.90;;
68216;SDS011;55037;52.354;4.992;2022-10-30T11:51:33;15.50;;;6.90;;
68216;SDS011;55037;52.354;4.992;2022-10-30T11:54:04;14.27;;;6.53;;
68216;SDS011;55037;52.354;4.992;2022-10-30T11:56:33;14.50;;;6.43;;
68216;SDS011;55037;52.354;4.992;2022-10-30T11:59:01;14.70;;;6.22;;
68216;SDS011;55037;52.354;4.992;2022-10-30T12:01:31;16.25;;;6.05;;
68216;SDS011;55037;52.354;4.992;2022-10-30T12:04:15;14.77;;;6.20;;
68216;SDS011;55037;52.354;4.992;2022-10-30T12:07:08;15.03;;;5.90;;
68216;SDS011;55037;52.354;4.992;2022-10-30T12:09:48;16.25;;;6.30;;
68216;SDS011;55037;52.354;4.992;2022-10-30T12:14:50;16.27;;;6.33;;
68216;SDS011;55037;52.354;4.992;2022-10-30T12:17:19;17.52;;;6.82;;
68216;SDS011;55037;52.354;4.992;2022-10-30T12:19:48;17.38;;;6.22;;
68216;SDS011;55037;52.354;4.992;2022-10-30T12:22:31;15.63;;;6.20;;
68216;SDS011;55037;52.354;4.992;2022-10-30T12:25:04;16.65;;;5.90;;
68216;SDS011;55037;52.354;4.992;2022-10-30T12:27:41;18.10;;;7.57;;
68216;SDS011;55037;52.354;4.992;2022-10-30T12:30:20;19.80;;;7.85;;
68216;SDS011;55037;52.354;4.992;2022-10-30T12:32:48;17.10;;;7.85;;
68216;SDS011;55037;52.354;4.992;2022-10-30T12:38:01;16.77;;;7.30;;
68216;SDS011;55037;52.354;4.992;2022-10-30T12:40:35;16.75;;;7.40;;
68216;SDS011;55037;52.354;4.992;2022-10-30T12:43:12;16.35;;;6.90;;
68216;SDS011;55037;52.354;4.992;2022-10-30T12:45:46;17.08;;;7.30;;
68216;SDS011;55037;52.354;4.992;2022-10-30T12:48:16;21.58;;;7.88;;
68216;SDS011;55037;52.354;4.992;2022-10-30T12:53:53;20.25;;;7.65;;
68216;SDS011;55037;52.354;4.992;2022-10-30T12:56:29;16.63;;;7.82;;
68216;SDS011;55037;52.354;4.992;2022-10-30T12:59:11;20.60;;;7.43;;
68216;SDS011;55037;52.354;4.992;2022-10-30T13:01:48;17.63;;;7.00;;
68216;SDS011;55037;52.354;4.992;2022-10-30T13:04:24;18.15;;;7.22;;
68216;SDS011;55037;52.354;4.992;2022-10-30T13:07:19;19.10;;;7.45;;
68216;SDS011;55037;52.354;4.992;2022-10-30T13:12:42;20.95;;;8.60;;
68216;SDS011;55037;52.354;4.992;2022-10-30T13:15:20;19.98;;;8.90;;
68216;SDS011;55037;52.354;4.992;2022-10-30T13:17:54;18.13;;;8.40;;
68216;SDS011;55037;52.354;4.992;2022-10-30T13:20:25;18.17;;;8.98;;
68216;SDS011;55037;52.354;4.992;2022-10-30T13:23:10;19.55;;;9.27;;
68216;SDS011;55037;52.354;4.992;2022-10-30T13:25:54;17.20;;;8.40;;
68216;SDS011;55037;52.354;4.992;2022-10-30T13:28:51;19.60;;;8.68;;
68216;SDS011;55037;52.354;4.992;2022-10-30T13:31:25;20.67;;;8.52;;
68216;SDS011;55037;52.354;4.992;2022-10-30T13:34:00;21.27;;;8.57;;
68216;SDS011;55037;52.354;4.992;2022-10-30T13:36:42;18.67;;;8.90;;
68216;SDS011;55037;52.354;4.992;2022-10-30T13:39:26;22.65;;;9.50;;
68216;SDS011;55037;52.354;4.992;2022-10-30T13:42:04;20.95;;;9.18;;
68216;SDS011;55037;52.354;4.992;2022-10-30T13:45:11;22.48;;;9.40;;
68216;SDS011;55037;52.354;4.992;2022-10-30T13:48:08;19.23;;;8.90;;
68216;SDS011;55037;52.354;4.992;2022-10-30T13:51:00;18.77;;;8.90;;
68216;SDS011;55037;52.354;4.992;2022-10-30T13:53:43;18.80;;;8.60;;
68216;SDS011;55037;52.354;4.992;2022-10-30T13:56:14;19.35;;;8.80;;
68216;SDS011;55037;52.354;4.992;2022-10-30T13:58:46;20.15;;;9.20;;
68216;SDS011;55037;52.354;4.992;2022-10-30T14:04:11;20.65;;;8.93;;
68216;SDS011;55037;52.354;4.992;2022-10-30T14:18:41;24.67;;;9.05;;
68216;SDS011;55037;52.354;4.992;2022-10-30T14:20:49;22.20;;;8.27;;
68216;SDS011;55037;52.354;4.992;2022-10-30T14:28:28;19.50;;;9.00;;
68216;SDS011;55037;52.354;4.992;2022-10-30T14:31:03;21.40;;;9.73;;
68216;SDS011;55037;52.354;4.992;2022-10-30T14:36:22;23.47;;;9.77;;
68216;SDS011;55037;52.354;4.992;2022-10-30T14:38:57;22.37;;;9.50;;
68216;SDS011;55037;52.354;4.992;2022-10-30T14:53:01;20.80;;;10.18;;
68216;SDS011;55037;52.354;4.992;2022-10-30T15:02:00;22.23;;;10.95;;
68216;SDS011;55037;52.354;4.992;2022-10-30T15:10:10;22.42;;;10.45;;
68216;SDS011;55037;52.354;4.992;2022-10-30T15:12:48;23.55;;;9.88;;
68216;SDS011;55037;52.354;4.992;2022-10-30T15:15:28;19.23;;;9.23;;
68216;SDS011;55037;52.354;4.992;2022-10-30T15:17:57;18.88;;;8.55;;
68216;SDS011;55037;52.354;4.992;2022-10-30T15:20:29;20.95;;;8.50;;
68216;SDS011;55037;52.354;4.992;2022-10-30T15:23:06;18.90;;;8.43;;
68216;SDS011;55037;52.354;4.992;2022-10-30T15:25:51;16.95;;;7.07;;
68216;SDS011;55037;52.354;4.992;2022-10-30T15:28:30;16.38;;;7.45;;
68216;SDS011;55037;52.354;4.992;2022-10-30T15:31:04;18.08;;;7.28;;
68216;SDS011;55037;52.354;4.992;2022-10-30T15:33:31;16.17;;;6.30;;
68216;SDS011;55037;52.354;4.992;2022-10-30T15:36:03;13.85;;;6.18;;
68216;SDS011;55037;52.354;4.992;2022-10-30T15:38:31;16.83;;;5.32;;
68216;SDS011;55037;52.354;4.992;2022-10-30T15:41:00;15.70;;;4.13;;
68216;SDS011;55037;52.354;4.992;2022-10-30T15:43:30;13.60;;;3.73;;
68216;SDS011;55037;52.354;4.992;2022-10-30T15:45:59;10.60;;;3.88;;
68216;SDS011;55037;52.354;4.992;2022-10-30T15:48:27;10.70;;;4.18;;
68216;SDS011;55037;52.354;4.992;2022-10-30T15:51:04;12.10;;;4.35;;
68216;SDS011;55037;52.354;4.992;2022-10-30T15:56:35;12.97;;;4.87;;
68216;SDS011;55037;52.354;4.992;2022-10-30T15:59:23;12.75;;;4.95;;
68216;SDS011;55037;52.354;4.992;2022-10-30T16:01:53;12.20;;;4.65;;
68216;SDS011;55037;52.354;4.992;2022-10-30T16:04:40;11.88;;;4.75;;
68216;SDS011;55037;52.354;4.992;2022-10-30T16:07:18;11.60;;;4.73;;
68216;SDS011;55037;52.354;4.992;2022-10-30T16:09:50;17.07;;;5.17;;
68216;SDS011;55037;52.354;4.992;2022-10-30T16:12:19;13.95;;;5.68;;
68216;SDS011;55037;52.354;4.992;2022-10-30T16:14:49;13.98;;;4.88;;
68216;SDS011;55037;52.354;4.992;2022-10-30T16:17:16;13.50;;;4.90;;
68216;SDS011;55037;52.354;4.992;2022-10-30T16:19:45;12.32;;;3.67;;
68216;SDS011;55037;52.354;4.992;2022-10-30T16:22:19;12.00;;;4.22;;
68216;SDS011;55037;52.354;4.992;2022-10-30T16:24:52;10.77;;;4.00;;
68216;SDS011;55037;52.354;4.992;2022-10-30T16:27:22;12.57;;;4.03;;
68216;SDS011;55037;52.354;4.992;2022-10-30T16:29:54;11.05;;;4.13;;
68216;SDS011;55037;52.354;4.992;2022-10-30T16:32:24;15.40;;;4.10;;
68216;SDS011;55037;52.354;4.992;2022-10-30T16:34:58;12.23;;;4.00;;
68216;SDS011;55037;52.354;4.992;2022-10-30T16:37:31;11.77;;;4.00;;
68216;SDS011;55037;52.354;4.992;2022-10-30T16:42:44;13.02;;;4.13;;
68216;SDS011;55037;52.354;4.992;2022-10-30T16:47:55;14.68;;;4.13;;
68216;SDS011;55037;52.354;4.992;2022-10-30T16:50:35;13.18;;;4.18;;
68216;SDS011;55037;52.354;4.992;2022-10-30T16:53:04;12.87;;;3.90;;
68216;SDS011;55037;52.354;4.992;2022-10-30T16:55:32;10.50;;;3.60;;
68216;SDS011;55037;52.354;4.992;2022-10-30T16:58:03;11.10;;;3.80;;
68216;SDS011;55037;52.354;4.992;2022-10-30T17:00:30;10.88;;;3.47;;
68216;SDS011;55037;52.354;4.992;2022-10-30T17:03:06;10.07;;;3.60;;
68216;SDS011;55037;52.354;4.992;2022-10-30T17:05:35;12.52;;;3.75;;
68216;SDS011;55037;52.354;4.992;2022-10-30T17:08:04;15.23;;;5.00;;
68216;SDS011;55037;52.354;4.992;2022-10-30T17:13:36;14.57;;;5.20;;
68216;SDS011;55037;52.354;4.992;2022-10-30T17:16:21;13.45;;;4.60;;
68216;SDS011;55037;52.354;4.992;2022-10-30T17:21:58;11.25;;;4.60;;
68216;SDS011;55037;52.354;4.992;2022-10-30T17:24:31;15.32;;;5.47;;
68216;SDS011;55037;52.354;4.992;2022-10-30T17:27:01;18.57;;;8.80;;
68216;SDS011;55037;52.354;4.992;2022-10-30T17:32:04;15.97;;;5.70;;
68216;SDS011;55037;52.354;4.992;2022-10-30T17:34:59;17.35;;;5.30;;
68216;SDS011;55037;52.354;4.992;2022-10-30T17:37:28;14.77;;;5.28;;
68216;SDS011;55037;52.354;4.992;2022-10-30T17:39:55;15.57;;;5.57;;